sensor_id;sensor_type;location;lat;lon;timestamp;pressure;altitude;pressure_sealevel;temperature;humidity
74529;BME280;63009;52.584;5.932;2022-12-07T00:01:15;101867.22;;;3.10;100.00
74529;BME280;63009;52.584;5.932;2022-12-07T00:03:42;101865.44;;;3.13;100.00
74529;BME280;63009;52.584;5.932;2022-12-07T00:06:11;101862.03;;;3.05;100.00
74529;BME280;63009;52.584;5.932;2022-12-07T00:08:38;101870.72;;;3.07;100.00
74529;BME280;63009;52.584;5.932;2022-12-07T00:11:09;101865.53;;;3.04;100.00
74529;BME280;63009;52.584;5.932;2022-12-07T00:13:35;101871.66;;;3.02;100.00
74529;BME280;63009;52.584;5.932;2022-12-07T00:16:02;101858.72;;;2.89;100.00
74529;BME280;63009;52.584;5.932;2022-12-07T00:18:28;101855.25;;;2.89;100.00
74529;BME280;63009;52.584;5.932;2022-12-07T00:20:59;101862.28;;;2.84;100.00
74529;BME280;63009;52.584;5.932;2022-12-07T00:23:25;101854.44;;;2.81;100.00
74529;BME280;63009;52.584;5.932;2022-12-07T00:25:50;101860.59;;;2.77;100.00
74529;BME280;63009;52.584;5.932;2022-12-07T00:28:15;101854.56;;;2.72;100.00
74529;BME280;63009;52.584;5.932;2022-12-07T00:30:40;101851.94;;;2.72;100.00
74529;BME280;63009;52.584;5.932;2022-12-07T00:33:06;101864.97;;;2.75;100.00
74529;BME280;63009;52.584;5.932;2022-12-07T00:35:31;101856.25;;;2.76;100.00
74529;BME280;63009;52.584;5.932;2022-12-07T00:37:56;101854.56;;;2.72;100.00
74529;BME280;63009;52.584;5.932;2022-12-07T00:40:21;101845.88;;;2.70;100.00
74529;BME280;63009;52.584;5.932;2022-12-07T00:42:47;101858.03;;;2.71;100.00
74529;BME280;63009;52.584;5.932;2022-12-07T00:45:12;101851.97;;;2.68;100.00
74529;BME280;63009;52.584;5.932;2022-12-07T00:47:37;101851.97;;;2.67;100.00
74529;BME280;63009;52.584;5.932;2022-12-07T00:50:03;101841.59;;;2.61;100.00
74529;BME280;63009;52.584;5.932;2022-12-07T00:52:28;101847.66;;;2.64;100.00
74529;BME280;63009;52.584;5.932;2022-12-07T00:54:53;101847.66;;;2.64;100.00
74529;BME280;63009;52.584;5.932;2022-12-07T00:57:18;101851.16;;;2.62;100.00
74529;BME280;63009;52.584;5.932;2022-12-07T00:59:44;101854.63;;;2.62;100.00
74529;BME280;63009;52.584;5.932;2022-12-07T01:02:09;101845.97;;;2.60;100.00
74529;BME280;63009;52.584;5.932;2022-12-07T01:04:34;101840.75;;;2.59;100.00
74529;BME280;63009;52.584;5.932;2022-12-07T01:06:59;101836.38;;;2.61;100.00
74529;BME280;63009;52.584;5.932;2022-12-07T01:09:25;101833.78;;;2.59;100.00
74529;BME280;63009;52.584;5.932;2022-12-07T01:11:50;101828.59;;;2.58;100.00
74529;BME280;63009;52.584;5.932;2022-12-07T01:14:15;101823.41;;;2.55;100.00
74529;BME280;63009;52.584;5.932;2022-12-07T01:16:40;101826.03;;;2.55;100.00
74529;BME280;63009;52.584;5.932;2022-12-07T01:19:06;101839.91;;;2.57;100.00
74529;BME280;63009;52.584;5.932;2022-12-07T01:21:34;101840.78;;;2.57;100.00
74529;BME280;63009;52.584;5.932;2022-12-07T01:24:01;101830.34;;;2.53;100.00
74529;BME280;63009;52.584;5.932;2022-12-07T01:26:27;101841.66;;;2.56;100.00
74529;BME280;63009;52.584;5.932;2022-12-07T01:28:53;101837.31;;;2.57;100.00
74529;BME280;63009;52.584;5.932;2022-12-07T01:31:21;101832.97;;;2.51;100.00
74529;BME280;63009;52.584;5.932;2022-12-07T01:33:50;101832.97;;;2.54;100.00
74529;BME280;63009;52.584;5.932;2022-12-07T01:38:43;101840.81;;;2.50;100.00
74529;BME280;63009;52.584;5.932;2022-12-07T01:41:10;101837.34;;;2.49;100.00
74529;BME280;63009;52.584;5.932;2022-12-07T01:43:35;101827.03;;;2.40;100.00
74529;BME280;63009;52.584;5.932;2022-12-07T01:46:02;101842.59;;;2.46;100.00
74529;BME280;63009;52.584;5.932;2022-12-07T01:48:38;101844.38;;;2.44;100.00
74529;BME280;63009;52.584;5.932;2022-12-07T01:51:08;101847.00;;;2.41;100.00
74529;BME280;63009;52.584;5.932;2022-12-07T01:53:36;101845.28;;;2.37;99.73
74529;BME280;63009;52.584;5.932;2022-12-07T01:56:02;101847.91;;;2.35;99.92
74529;BME280;63009;52.584;5.932;2022-12-07T01:58:28;101857.47;;;2.40;100.00
74529;BME280;63009;52.584;5.932;2022-12-07T02:00:54;101837.44;;;2.42;100.00
74529;BME280;63009;52.584;5.932;2022-12-07T02:03:23;101852.94;;;2.58;100.00
74529;BME280;63009;52.584;5.932;2022-12-07T02:05:51;101841.50;;;2.72;100.00
74529;BME280;63009;52.584;5.932;2022-12-07T02:08:17;101839.66;;;2.81;100.00
74529;BME280;63009;52.584;5.932;2022-12-07T02:10:42;101832.66;;;2.85;100.00
74529;BME280;63009;52.584;5.932;2022-12-07T02:13:12;101833.41;;;2.94;100.00
74529;BME280;63009;52.584;5.932;2022-12-07T02:21:40;101831.44;;;3.16;100.00
74529;BME280;63009;52.584;5.932;2022-12-07T02:24:14;101821.81;;;3.20;100.00
74529;BME280;63009;52.584;5.932;2022-12-07T02:27:04;101820.94;;;3.19;100.00
74529;BME280;63009;52.584;5.932;2022-12-07T02:29:40;101817.50;;;3.17;100.00
74529;BME280;63009;52.584;5.932;2022-12-07T02:34:43;101825.31;;;3.19;100.00
74529;BME280;63009;52.584;5.932;2022-12-07T02:37:29;101821.81;;;3.18;99.89
74529;BME280;63009;52.584;5.932;2022-12-07T02:40:13;101829.72;;;3.15;100.00
74529;BME280;63009;52.584;5.932;2022-12-07T02:42:45;101826.22;;;3.16;100.00
74529;BME280;63009;52.584;5.932;2022-12-07T02:45:14;101825.38;;;3.14;100.00
74529;BME280;63009;52.584;5.932;2022-12-07T02:47:43;101823.63;;;3.15;100.00
74529;BME280;63009;52.584;5.932;2022-12-07T02:50:09;101821.91;;;3.12;99.92
74529;BME280;63009;52.584;5.932;2022-12-07T02:52:35;101813.25;;;3.07;99.88
74529;BME280;63009;52.584;5.932;2022-12-07T02:55:00;101826.31;;;3.10;100.00
74529;BME280;63009;52.584;5.932;2022-12-07T03:00:46;101817.63;;;3.07;100.00
74529;BME280;63009;52.584;5.932;2022-12-07T03:03:16;101822.81;;;3.10;99.93
74529;BME280;63009;52.584;5.932;2022-12-07T03:06:02;101826.31;;;3.07;100.00
74529;BME280;63009;52.584;5.932;2022-12-07T03:08:40;101835.88;;;3.07;99.93
74529;BME280;63009;52.584;5.932;2022-12-07T03:11:25;101826.41;;;3.01;99.85
74529;BME280;63009;52.584;5.932;2022-12-07T03:14:13;101832.47;;;3.03;99.66
74529;BME280;63009;52.584;5.932;2022-12-07T03:16:53;101828.16;;;2.99;99.59
74529;BME280;63009;52.584;5.932;2022-12-07T03:19:22;101822.97;;;2.96;99.65
74529;BME280;63009;52.584;5.932;2022-12-07T03:21:56;101826.44;;;2.95;99.61
74529;BME280;63009;52.584;5.932;2022-12-07T03:24:26;101816.94;;;2.89;99.85
74529;BME280;63009;52.584;5.932;2022-12-07T03:26:56;101816.94;;;2.91;99.75
74529;BME280;63009;52.584;5.932;2022-12-07T03:29:28;101812.59;;;2.88;100.00
74529;BME280;63009;52.584;5.932;2022-12-07T03:32:17;101817.78;;;2.91;99.71
74529;BME280;63009;52.584;5.932;2022-12-07T03:34:48;101816.97;;;2.88;100.00
74529;BME280;63009;52.584;5.932;2022-12-07T03:37:31;101804.78;;;2.88;100.00
74529;BME280;63009;52.584;5.932;2022-12-07T03:40:10;101798.72;;;2.86;100.00
74529;BME280;63009;52.584;5.932;2022-12-07T03:42:38;101800.44;;;2.87;100.00
74529;BME280;63009;52.584;5.932;2022-12-07T03:45:05;101802.19;;;2.87;100.00
74529;BME280;63009;52.584;5.932;2022-12-07T03:47:35;101801.31;;;2.86;100.00
74529;BME280;63009;52.584;5.932;2022-12-07T03:55:52;101787.50;;;2.77;100.00
74529;BME280;63009;52.584;5.932;2022-12-07T03:58:20;101780.56;;;2.74;100.00
74529;BME280;63009;52.584;5.932;2022-12-07T04:00:48;101793.56;;;2.79;100.00
74529;BME280;63009;52.584;5.932;2022-12-07T04:03:14;101793.59;;;2.77;100.00
74529;BME280;63009;52.584;5.932;2022-12-07T04:05:40;101795.31;;;2.77;100.00
74529;BME280;63009;52.584;5.932;2022-12-07T04:08:06;101805.75;;;2.78;100.00
74529;BME280;63009;52.584;5.932;2022-12-07T04:10:31;101810.06;;;2.81;100.00
74529;BME280;63009;52.584;5.932;2022-12-07T04:12:56;101803.97;;;2.80;100.00
74529;BME280;63009;52.584;5.932;2022-12-07T04:15:22;101791.81;;;2.79;100.00
74529;BME280;63009;52.584;5.932;2022-12-07T04:17:47;101792.66;;;2.81;100.00
74529;BME280;63009;52.584;5.932;2022-12-07T04:20:13;101797.00;;;2.81;100.00
74529;BME280;63009;52.584;5.932;2022-12-07T04:22:38;101794.47;;;2.76;100.00
74529;BME280;63009;52.584;5.932;2022-12-07T04:25:04;101795.38;;;2.74;100.00
74529;BME280;63009;52.584;5.932;2022-12-07T04:27:29;101792.75;;;2.74;100.00
74529;BME280;63009;52.584;5.932;2022-12-07T04:29:54;101801.44;;;2.74;100.00
74529;BME280;63009;52.584;5.932;2022-12-07T04:32:21;101800.53;;;2.77;100.00
74529;BME280;63009;52.584;5.932;2022-12-07T04:34:46;101805.72;;;2.83;100.00
74529;BME280;63009;52.584;5.932;2022-12-07T04:37:11;101806.47;;;2.91;100.00
74529;BME280;63009;52.584;5.932;2022-12-07T04:39:37;101814.25;;;2.97;100.00
74529;BME280;63009;52.584;5.932;2022-12-07T04:42:02;101801.91;;;3.08;100.00
74529;BME280;63009;52.584;5.932;2022-12-07T04:44:28;101793.09;;;3.18;100.00
74529;BME280;63009;52.584;5.932;2022-12-07T04:46:54;101781.78;;;3.18;100.00
74529;BME280;63009;52.584;5.932;2022-12-07T04:49:20;101793.09;;;3.18;100.00
74529;BME280;63009;52.584;5.932;2022-12-07T04:51:46;101786.94;;;3.24;100.00
74529;BME280;63009;52.584;5.932;2022-12-07T04:54:13;101778.34;;;3.16;100.00
74529;BME280;63009;52.584;5.932;2022-12-07T04:56:38;101784.34;;;3.24;100.00
74529;BME280;63009;52.584;5.932;2022-12-07T04:59:04;101780.88;;;3.20;100.00
74529;BME280;63009;52.584;5.932;2022-12-07T05:01:30;101774.84;;;3.17;100.00
74529;BME280;63009;52.584;5.932;2022-12-07T05:03:56;101780.91;;;3.17;100.00
74529;BME280;63009;52.584;5.932;2022-12-07T05:06:21;101782.66;;;3.18;100.00
74529;BME280;63009;52.584;5.932;2022-12-07T05:08:47;101777.47;;;3.15;100.00
74529;BME280;63009;52.584;5.932;2022-12-07T05:11:12;101775.75;;;3.14;100.00
74529;BME280;63009;52.584;5.932;2022-12-07T05:13:57;101768.84;;;3.07;100.00
74529;BME280;63009;52.584;5.932;2022-12-07T05:16:22;101764.53;;;3.05;100.00
74529;BME280;63009;52.584;5.932;2022-12-07T05:18:47;101758.53;;;2.98;100.00
74529;BME280;63009;52.584;5.932;2022-12-07T05:21:13;101768.13;;;2.97;100.00
74529;BME280;63009;52.584;5.932;2022-12-07T05:23:38;101772.53;;;2.91;99.91
74529;BME280;63009;52.584;5.932;2022-12-07T05:26:03;101769.13;;;2.86;99.29
74529;BME280;63009;52.584;5.932;2022-12-07T05:28:29;101769.22;;;2.77;98.95
74529;BME280;63009;52.584;5.932;2022-12-07T05:30:54;101776.16;;;2.78;98.92
74529;BME280;63009;52.584;5.932;2022-12-07T05:33:19;101778.81;;;2.75;98.95
74529;BME280;63009;52.584;5.932;2022-12-07T05:35:44;101788.47;;;2.66;98.44
74529;BME280;63009;52.584;5.932;2022-12-07T05:38:10;101776.41;;;2.58;98.59
74529;BME280;63009;52.584;5.932;2022-12-07T05:40:36;101772.97;;;2.53;98.30
74529;BME280;63009;52.584;5.932;2022-12-07T05:43:01;101770.47;;;2.44;97.95
74529;BME280;63009;52.584;5.932;2022-12-07T05:45:27;101779.16;;;2.44;98.12
74529;BME280;63009;52.584;5.932;2022-12-07T05:47:52;101776.63;;;2.35;97.53
74529;BME280;63009;52.584;5.932;2022-12-07T05:50:17;101784.44;;;2.35;97.61
74529;BME280;63009;52.584;5.932;2022-12-07T05:52:42;101769.75;;;2.23;97.68
74529;BME280;63009;52.584;5.932;2022-12-07T05:55:08;101779.34;;;2.26;97.62
74529;BME280;63009;52.584;5.932;2022-12-07T05:57:33;101764.63;;;2.16;97.53
74529;BME280;63009;52.584;5.932;2022-12-07T05:59:58;101762.94;;;2.08;97.84
74529;BME280;63009;52.584;5.932;2022-12-07T06:02:24;101764.72;;;2.05;98.43
74529;BME280;63009;52.584;5.932;2022-12-07T06:04:49;101764.66;;;2.11;98.53
74529;BME280;63009;52.584;5.932;2022-12-07T06:07:15;101769.88;;;2.09;98.87
74529;BME280;63009;52.584;5.932;2022-12-07T06:09:41;101762.94;;;2.08;98.80
74529;BME280;63009;52.584;5.932;2022-12-07T06:12:09;101762.94;;;2.08;98.79
74529;BME280;63009;52.584;5.932;2022-12-07T06:14:54;101769.88;;;2.09;99.08
74529;BME280;63009;52.584;5.932;2022-12-07T06:17:19;101761.25;;;2.04;99.21
74529;BME280;63009;52.584;5.932;2022-12-07T06:19:44;101781.22;;;2.07;98.93
74529;BME280;63009;52.584;5.932;2022-12-07T06:22:10;101776.06;;;2.01;98.51
74529;BME280;63009;52.584;5.932;2022-12-07T06:24:37;101775.16;;;2.03;98.82
74529;BME280;63009;52.584;5.932;2022-12-07T06:27:02;101779.47;;;2.06;99.21
74529;BME280;63009;52.584;5.932;2022-12-07T06:29:28;101780.31;;;2.09;98.99
74529;BME280;63009;52.584;5.932;2022-12-07T06:31:53;101775.97;;;2.13;99.09
74529;BME280;63009;52.584;5.932;2022-12-07T06:34:22;101786.38;;;2.15;99.18
74529;BME280;63009;52.584;5.932;2022-12-07T06:36:49;101780.31;;;2.13;99.14
74529;BME280;63009;52.584;5.932;2022-12-07T06:39:17;101780.31;;;2.09;98.69
74529;BME280;63009;52.584;5.932;2022-12-07T06:41:43;101792.50;;;2.07;98.63
74529;BME280;63009;52.584;5.932;2022-12-07T06:44:08;101789.91;;;2.07;98.62
74529;BME280;63009;52.584;5.932;2022-12-07T06:46:34;101779.53;;;2.01;98.55
74529;BME280;63009;52.584;5.932;2022-12-07T06:49:01;101791.69;;;2.02;98.34
74529;BME280;63009;52.584;5.932;2022-12-07T06:51:26;101788.22;;;2.02;98.38
74529;BME280;63009;52.584;5.932;2022-12-07T06:53:51;101783.06;;;1.97;98.78
74529;BME280;63009;52.584;5.932;2022-12-07T06:56:16;101789.13;;;1.96;98.94
74529;BME280;63009;52.584;5.932;2022-12-07T06:58:42;101795.22;;;1.98;99.19
74529;BME280;63009;52.584;5.932;2022-12-07T07:01:12;101797.78;;;2.01;99.53
74529;BME280;63009;52.584;5.932;2022-12-07T07:03:38;101790.84;;;2.00;99.59
74529;BME280;63009;52.584;5.932;2022-12-07T07:06:04;101783.03;;;2.00;99.50
74529;BME280;63009;52.584;5.932;2022-12-07T07:08:29;101796.91;;;2.02;99.54
74529;BME280;63009;52.584;5.932;2022-12-07T07:10:55;101788.22;;;2.02;99.85
74529;BME280;63009;52.584;5.932;2022-12-07T07:13:21;101789.13;;;1.99;100.00
74529;BME280;63009;52.584;5.932;2022-12-07T07:15:46;101796.91;;;2.01;100.00
74529;BME280;63009;52.584;5.932;2022-12-07T07:18:11;101802.09;;;2.05;100.00
74529;BME280;63009;52.584;5.932;2022-12-07T07:20:37;101808.13;;;2.11;100.00
74529;BME280;63009;52.584;5.932;2022-12-07T07:23:02;101806.38;;;2.13;100.00
74529;BME280;63009;52.584;5.932;2022-12-07T07:25:28;101799.44;;;2.13;100.00
74529;BME280;63009;52.584;5.932;2022-12-07T07:27:53;101792.44;;;2.17;100.00
74529;BME280;63009;52.584;5.932;2022-12-07T07:30:18;101787.22;;;2.17;100.00
74529;BME280;63009;52.584;5.932;2022-12-07T07:32:43;101778.56;;;2.15;100.00
74529;BME280;63009;52.584;5.932;2022-12-07T07:35:09;101795.81;;;2.25;100.00
74529;BME280;63009;52.584;5.932;2022-12-07T07:37:34;101797.53;;;2.30;100.00
74529;BME280;63009;52.584;5.932;2022-12-07T07:39:59;101797.53;;;2.30;100.00
74529;BME280;63009;52.584;5.932;2022-12-07T07:42:25;101802.69;;;2.35;100.00
74529;BME280;63009;52.584;5.932;2022-12-07T07:44:50;101797.47;;;2.36;100.00
74529;BME280;63009;52.584;5.932;2022-12-07T07:47:15;101790.50;;;2.37;100.00
74529;BME280;63009;52.584;5.932;2022-12-07T07:49:41;101784.47;;;2.33;100.00
74529;BME280;63009;52.584;5.932;2022-12-07T07:52:06;101776.59;;;2.38;100.00
74529;BME280;63009;52.584;5.932;2022-12-07T07:54:32;101782.56;;;2.49;100.00
74529;BME280;63009;52.584;5.932;2022-12-07T07:56:57;101783.41;;;2.54;100.00
74529;BME280;63009;52.584;5.932;2022-12-07T07:59:23;101790.38;;;2.54;100.00
74529;BME280;63009;52.584;5.932;2022-12-07T08:01:48;101787.75;;;2.54;100.00
74529;BME280;63009;52.584;5.932;2022-12-07T08:04:13;101786.84;;;2.58;100.00
74529;BME280;63009;52.584;5.932;2022-12-07T08:06:38;101782.47;;;2.58;100.00
74529;BME280;63009;52.584;5.932;2022-12-07T08:09:04;101792.09;;;2.55;100.00
74529;BME280;63009;52.584;5.932;2022-12-07T08:11:31;101794.63;;;2.61;100.00
74529;BME280;63009;52.584;5.932;2022-12-07T08:13:56;101789.44;;;2.58;100.00
74529;BME280;63009;52.584;5.932;2022-12-07T08:16:21;101800.69;;;2.63;100.00
74529;BME280;63009;52.584;5.932;2022-12-07T08:18:46;101813.72;;;2.67;100.00
74529;BME280;63009;52.584;5.932;2022-12-07T08:21:14;101798.03;;;2.66;100.00
74529;BME280;63009;52.584;5.932;2022-12-07T08:23:40;101805.81;;;2.72;100.00
74529;BME280;63009;52.584;5.932;2022-12-07T08:26:08;101802.34;;;2.73;100.00
74529;BME280;63009;52.584;5.932;2022-12-07T08:28:33;101807.50;;;2.78;100.00
74529;BME280;63009;52.584;5.932;2022-12-07T08:31:00;101802.22;;;2.84;100.00
74529;BME280;63009;52.584;5.932;2022-12-07T08:33:25;101806.53;;;2.86;100.00
74529;BME280;63009;52.584;5.932;2022-12-07T08:35:51;101804.72;;;2.91;100.00
74529;BME280;63009;52.584;5.932;2022-12-07T08:38:16;101818.63;;;2.96;100.00
74529;BME280;63009;52.584;5.932;2022-12-07T08:40:41;101813.38;;;2.98;100.00
74529;BME280;63009;52.584;5.932;2022-12-07T08:43:07;101809.88;;;2.99;100.00
74529;BME280;63009;52.584;5.932;2022-12-07T08:45:32;101816.75;;;3.06;100.00
74529;BME280;63009;52.584;5.932;2022-12-07T08:48:11;101813.25;;;3.07;100.00
74529;BME280;63009;52.584;5.932;2022-12-07T08:50:38;101809.72;;;3.13;100.00
74529;BME280;63009;52.584;5.932;2022-12-07T08:53:04;101814.91;;;3.16;100.00
74529;BME280;63009;52.584;5.932;2022-12-07T08:55:31;101795.81;;;3.12;100.00
74529;BME280;63009;52.584;5.932;2022-12-07T08:57:58;101791.41;;;3.14;100.00
74529;BME280;63009;52.584;5.932;2022-12-07T09:00:25;101803.53;;;3.18;100.00
74529;BME280;63009;52.584;5.932;2022-12-07T09:02:51;101801.78;;;3.20;100.00
74529;BME280;63009;52.584;5.932;2022-12-07T09:05:16;101801.72;;;3.26;100.00
74529;BME280;63009;52.584;5.932;2022-12-07T09:07:44;101787.72;;;3.31;100.00
74529;BME280;63009;52.584;5.932;2022-12-07T09:10:10;101785.03;;;3.35;100.00
74529;BME280;63009;52.584;5.932;2022-12-07T09:12:36;101790.97;;;3.46;100.00
74529;BME280;63009;52.584;5.932;2022-12-07T09:15:01;101792.66;;;3.53;100.00
74529;BME280;63009;52.584;5.932;2022-12-07T09:17:27;101786.53;;;3.54;100.00
74529;BME280;63009;52.584;5.932;2022-12-07T09:19:52;101787.38;;;3.56;100.00
74529;BME280;63009;52.584;5.932;2022-12-07T09:22:18;101784.63;;;3.64;100.00
74529;BME280;63009;52.584;5.932;2022-12-07T09:24:43;101797.66;;;3.69;100.00
74529;BME280;63009;52.584;5.932;2022-12-07T09:27:10;101808.94;;;3.71;100.00
74529;BME280;63009;52.584;5.932;2022-12-07T09:29:36;101810.63;;;3.75;100.00
74529;BME280;63009;52.584;5.932;2022-12-07T09:32:01;101813.09;;;3.85;100.00
74529;BME280;63009;52.584;5.932;2022-12-07T09:34:30;101813.72;;;4.01;99.85
74529;BME280;63009;52.584;5.932;2022-12-07T09:36:55;101799.66;;;4.08;98.85
74529;BME280;63009;52.584;5.932;2022-12-07T09:39:21;101819.44;;;4.25;97.72
74529;BME280;63009;52.584;5.932;2022-12-07T09:41:46;101809.81;;;4.27;96.60
74529;BME280;63009;52.584;5.932;2022-12-07T09:44:14;101818.41;;;4.33;95.76
74529;BME280;63009;52.584;5.932;2022-12-07T09:46:43;101813.16;;;4.36;96.09
74529;BME280;63009;52.584;5.932;2022-12-07T09:49:12;101815.63;;;4.42;95.59
74529;BME280;63009;52.584;5.932;2022-12-07T09:51:39;101816.44;;;4.46;95.85
74529;BME280;63009;52.584;5.932;2022-12-07T09:54:05;101818.13;;;4.48;95.69
74529;BME280;63009;52.584;5.932;2022-12-07T09:56:30;101811.97;;;4.53;95.22
74529;BME280;63009;52.584;5.932;2022-12-07T09:59:01;101815.44;;;4.55;95.63
74529;BME280;63009;52.584;5.932;2022-12-07T10:01:31;101811.94;;;4.54;96.11
74529;BME280;63009;52.584;5.932;2022-12-07T10:04:23;101802.41;;;4.50;96.03
74529;BME280;63009;52.584;5.932;2022-12-07T10:06:49;101810.22;;;4.53;96.03
74529;BME280;63009;52.584;5.932;2022-12-07T10:09:17;101806.81;;;4.48;96.49
74529;BME280;63009;52.584;5.932;2022-12-07T10:14:29;101790.00;;;4.61;97.00
74529;BME280;63009;52.584;5.932;2022-12-07T10:16:55;101787.19;;;4.72;97.29
74529;BME280;63009;52.584;5.932;2022-12-07T10:19:27;101780.09;;;4.79;97.08
74529;BME280;63009;52.584;5.932;2022-12-07T10:22:12;101770.47;;;4.79;95.84
74529;BME280;63009;52.584;5.932;2022-12-07T10:24:39;101774.84;;;4.79;95.86
74529;BME280;63009;52.584;5.932;2022-12-07T10:27:26;101772.13;;;4.83;95.22
74529;BME280;63009;52.584;5.932;2022-12-07T10:29:53;101763.34;;;4.86;95.73
74529;BME280;63009;52.584;5.932;2022-12-07T10:34:44;101762.91;;;5.05;95.14
74529;BME280;63009;52.584;5.932;2022-12-07T10:39:52;101751.19;;;5.25;94.14
74529;BME280;63009;52.584;5.932;2022-12-07T10:42:20;101754.34;;;5.39;93.48
74529;BME280;63009;52.584;5.932;2022-12-07T10:44:47;101750.56;;;5.52;93.76
74529;BME280;63009;52.584;5.932;2022-12-07T10:47:24;101753.81;;;5.63;92.78
74529;BME280;63009;52.584;5.932;2022-12-07T10:52:53;101759.72;;;5.72;91.63
74529;BME280;63009;52.584;5.932;2022-12-07T10:58:17;101758.09;;;6.03;91.95
74529;BME280;63009;52.584;5.932;2022-12-07T11:01:25;101750.50;;;6.27;87.62
74529;BME280;63009;52.584;5.932;2022-12-07T11:04:24;101747.66;;;6.36;87.39
74529;BME280;63009;52.584;5.932;2022-12-07T11:07:29;101747.72;;;6.33;88.03
74529;BME280;63009;52.584;5.932;2022-12-07T11:10:45;101739.25;;;6.23;88.18
74529;BME280;63009;52.584;5.932;2022-12-07T11:13:15;101738.06;;;6.01;88.24
74529;BME280;63009;52.584;5.932;2022-12-07T11:18:39;101729.44;;;5.58;90.03
74529;BME280;63009;52.584;5.932;2022-12-07T11:21:34;101720.91;;;5.50;89.93
74529;BME280;63009;52.584;5.932;2022-12-07T11:24:13;101722.03;;;5.39;90.79
74529;BME280;63009;52.584;5.932;2022-12-07T11:32:13;101716.34;;;5.18;90.97
74529;BME280;63009;52.584;5.932;2022-12-07T11:37:33;101703.38;;;5.14;89.52
74529;BME280;63009;52.584;5.932;2022-12-07T11:40:05;101710.22;;;5.21;89.50
74529;BME280;63009;52.584;5.932;2022-12-07T11:42:38;101706.66;;;5.23;90.52
74529;BME280;63009;52.584;5.932;2022-12-07T11:45:16;101709.94;;;5.31;90.32
74529;BME280;63009;52.584;5.932;2022-12-07T11:47:51;101709.00;;;5.34;90.35
74529;BME280;63009;52.584;5.932;2022-12-07T11:50:46;101708.00;;;5.41;89.41
74529;BME280;63009;52.584;5.932;2022-12-07T11:53:24;101702.69;;;5.44;90.46
74529;BME280;63009;52.584;5.932;2022-12-07T11:56:14;101700.84;;;5.48;90.41
74529;BME280;63009;52.584;5.932;2022-12-07T12:04:03;101685.91;;;5.51;90.72
74529;BME280;63009;52.584;5.932;2022-12-07T12:06:31;101678.78;;;5.56;89.03
74529;BME280;63009;52.584;5.932;2022-12-07T12:11:46;101676.25;;;5.53;88.39
74529;BME280;63009;52.584;5.932;2022-12-07T12:14:22;101669.06;;;5.60;88.22
74529;BME280;63009;52.584;5.932;2022-12-07T12:19:40;101668.13;;;5.62;88.42
74529;BME280;63009;52.584;5.932;2022-12-07T12:24:37;101658.69;;;5.57;87.74
74529;BME280;63009;52.584;5.932;2022-12-07T12:27:15;101657.84;;;5.55;87.87
74529;BME280;63009;52.584;5.932;2022-12-07T12:29:43;101660.56;;;5.52;87.72
74529;BME280;63009;52.584;5.932;2022-12-07T12:32:16;101661.41;;;5.52;89.06
74529;BME280;63009;52.584;5.932;2022-12-07T12:35:02;101664.75;;;5.59;89.71
74529;BME280;63009;52.584;5.932;2022-12-07T12:42:56;101663.97;;;5.55;88.80
74529;BME280;63009;52.584;5.932;2022-12-07T12:45:25;101664.84;;;5.54;88.70
74529;BME280;63009;52.584;5.932;2022-12-07T12:53:01;101653.81;;;5.42;87.41
74529;BME280;63009;52.584;5.932;2022-12-07T12:56:00;101655.59;;;5.40;86.80
74529;BME280;63009;52.584;5.932;2022-12-07T12:58:33;101653.94;;;5.37;87.68
74529;BME280;63009;52.584;5.932;2022-12-07T13:01:42;101653.84;;;5.40;88.31
74529;BME280;63009;52.584;5.932;2022-12-07T13:04:28;101645.28;;;5.32;88.64
74529;BME280;63009;52.584;5.932;2022-12-07T13:06:55;101648.00;;;5.29;88.16
74529;BME280;63009;52.584;5.932;2022-12-07T13:09:33;101641.19;;;5.22;87.10
74529;BME280;63009;52.584;5.932;2022-12-07T13:12:12;101633.44;;;5.16;88.60
74529;BME280;63009;52.584;5.932;2022-12-07T13:14:42;101625.66;;;5.13;88.52
74529;BME280;63009;52.584;5.932;2022-12-07T13:17:12;101640.69;;;5.04;87.40
74529;BME280;63009;52.584;5.932;2022-12-07T13:20:07;101629.53;;;4.96;87.59
74529;BME280;63009;52.584;5.932;2022-12-07T13:25:41;101629.53;;;4.96;88.39
74529;BME280;63009;52.584;5.932;2022-12-07T13:28:17;101618.13;;;4.99;88.55
74529;BME280;63009;52.584;5.932;2022-12-07T13:30:54;101617.34;;;4.95;88.83
74529;BME280;63009;52.584;5.932;2022-12-07T13:33:24;101612.03;;;4.98;88.89
74529;BME280;63009;52.584;5.932;2022-12-07T13:35:54;101621.44;;;5.05;87.98
74529;BME280;63009;52.584;5.932;2022-12-07T13:38:32;101609.25;;;5.04;88.03
74529;BME280;63009;52.584;5.932;2022-12-07T13:41:11;101601.47;;;5.01;88.05
74529;BME280;63009;52.584;5.932;2022-12-07T13:43:52;101597.13;;;5.00;88.45
74529;BME280;63009;52.584;5.932;2022-12-07T13:46:24;101605.72;;;5.07;87.64
74529;BME280;63009;52.584;5.932;2022-12-07T13:48:51;101600.59;;;5.01;86.78
74529;BME280;63009;52.584;5.932;2022-12-07T13:51:25;101600.69;;;4.98;87.50
74529;BME280;63009;52.584;5.932;2022-12-07T13:53:59;101603.34;;;4.96;87.90
74529;BME280;63009;52.584;5.932;2022-12-07T13:56:33;101599.03;;;4.94;87.69
74529;BME280;63009;52.584;5.932;2022-12-07T13:58:59;101596.47;;;4.91;87.94
74529;BME280;63009;52.584;5.932;2022-12-07T14:01:25;101597.56;;;4.82;87.94
74529;BME280;63009;52.584;5.932;2022-12-07T14:03:50;101592.47;;;4.74;87.23
74529;BME280;63009;52.584;5.932;2022-12-07T14:06:25;101585.53;;;4.73;88.13
74529;BME280;63009;52.584;5.932;2022-12-07T14:09:29;101589.03;;;4.72;87.61
74529;BME280;63009;52.584;5.932;2022-12-07T14:11:56;101588.25;;;4.69;88.36
74529;BME280;63009;52.584;5.932;2022-12-07T14:14:26;101586.50;;;4.69;88.21
74529;BME280;63009;52.584;5.932;2022-12-07T14:17:17;101575.31;;;4.61;88.55
74529;BME280;63009;52.584;5.932;2022-12-07T14:22:34;101574.44;;;4.61;88.89